createdAt,value
2017-09-02T00:00:41.333Z,3.70
2017-09-02T00:03:14.929Z,3.70
2017-09-02T00:05:48.528Z,3.17
2017-09-02T00:08:22.108Z,3.47
2017-09-02T00:10:55.728Z,4.00
2017-09-02T00:13:30.009Z,4.00
2017-09-02T00:16:03.598Z,3.55
2017-09-02T00:18:37.119Z,3.25
2017-09-02T00:21:10.661Z,4.12
2017-09-02T00:23:44.264Z,4.57
2017-09-02T00:26:17.839Z,3.97
2017-09-02T00:28:51.423Z,3.40
2017-09-02T00:31:25.047Z,3.30
2017-09-02T00:33:58.601Z,3.30
2017-09-02T00:36:32.285Z,3.67
2017-09-02T00:39:05.832Z,3.97
2017-09-02T00:41:39.390Z,3.67
2017-09-02T00:44:12.930Z,4.30
2017-09-02T00:46:46.528Z,4.10
2017-09-02T00:49:20.072Z,4.05
2017-09-02T00:51:53.775Z,4.35
2017-09-02T00:54:27.446Z,3.83
2017-09-02T00:57:01.024Z,3.72
2017-09-02T00:59:34.546Z,3.87
2017-09-02T01:02:08.110Z,3.35
2017-09-02T01:04:41.868Z,4.32
2017-09-02T01:07:15.399Z,4.22
2017-09-02T01:09:48.908Z,4.30
2017-09-02T01:12:22.512Z,6.15
2017-09-02T01:14:56.172Z,8.63
2017-09-02T01:17:29.764Z,9.35
2017-09-02T01:20:03.305Z,8.05
2017-09-02T01:22:36.999Z,11.45
2017-09-02T01:25:10.645Z,10.70
2017-09-02T01:27:44.369Z,9.30
2017-09-02T01:30:23.664Z,10.25
2017-09-02T01:32:57.328Z,9.13
2017-09-02T01:35:30.885Z,9.43
2017-09-02T01:38:04.508Z,9.40
2017-09-02T01:40:38.142Z,10.60
2017-09-02T01:43:12.531Z,9.75
2017-09-02T01:45:46.058Z,9.52
2017-09-02T01:48:19.657Z,10.18
2017-09-02T01:50:53.165Z,10.20
2017-09-02T01:53:26.756Z,10.77
2017-09-02T01:56:00.554Z,10.32
2017-09-02T01:58:34.097Z,11.10
2017-09-02T02:01:08.140Z,10.18
2017-09-02T02:03:41.755Z,9.73
2017-09-02T02:06:15.319Z,9.93
2017-09-02T02:08:48.876Z,10.18
2017-09-02T02:11:22.426Z,10.63
2017-09-02T02:13:56.020Z,11.10
2017-09-02T02:16:29.557Z,10.65
2017-09-02T02:19:03.108Z,12.80
2017-09-02T02:21:36.742Z,10.38
2017-09-02T02:24:10.332Z,11.30
2017-09-02T02:26:43.876Z,11.43
2017-09-02T02:29:17.431Z,10.10
2017-09-02T02:31:51.049Z,9.48
2017-09-02T02:34:24.619Z,9.35
2017-09-02T02:36:58.236Z,9.88
2017-09-02T02:39:31.911Z,9.55
2017-09-02T02:42:05.462Z,9.05
2017-09-02T02:44:39.007Z,8.60
2017-09-02T02:47:12.595Z,8.95
2017-09-02T02:49:46.158Z,8.88
2017-09-02T02:52:19.665Z,8.02
2017-09-02T02:54:53.255Z,9.75
2017-09-02T02:57:26.905Z,9.02
2017-09-02T03:00:00.511Z,8.55
2017-09-02T03:02:34.091Z,8.32
2017-09-02T03:05:07.778Z,8.88
2017-09-02T03:07:41.387Z,9.07
2017-09-02T03:10:14.977Z,7.60
2017-09-02T03:12:48.499Z,8.32
2017-09-02T03:15:22.039Z,7.35
2017-09-02T03:17:55.585Z,8.18
2017-09-02T03:20:29.259Z,7.28
2017-09-02T03:23:02.798Z,6.95
2017-09-02T03:25:36.420Z,6.97
2017-09-02T03:28:10.017Z,5.90
2017-09-02T03:30:43.629Z,5.20
2017-09-02T03:33:17.213Z,5.05
2017-09-02T03:35:50.812Z,5.25
2017-09-02T03:38:24.408Z,4.40
2017-09-02T03:40:58.749Z,4.40
2017-09-02T03:43:32.410Z,3.60
2017-09-02T03:46:05.961Z,3.53
2017-09-02T03:48:39.513Z,3.90
2017-09-02T03:51:13.093Z,3.10
2017-09-02T03:53:46.824Z,2.65
2017-09-02T03:56:20.433Z,2.28
2017-09-02T03:58:54.011Z,1.98
2017-09-02T04:01:27.520Z,2.42
2017-09-02T04:04:01.095Z,2.45
2017-09-02T04:06:34.656Z,2.40
2017-09-02T04:09:08.225Z,2.75
2017-09-02T04:11:41.825Z,2.90
2017-09-02T04:14:15.455Z,1.52
2017-09-02T04:16:49.027Z,3.03
2017-09-02T04:19:22.630Z,1.90
2017-09-02T04:21:56.237Z,2.05
2017-09-02T04:24:29.764Z,2.15
2017-09-02T04:27:03.324Z,2.15
2017-09-02T04:29:36.904Z,2.28
2017-09-02T04:32:10.471Z,2.62
2017-09-02T04:34:44.048Z,3.05
2017-09-02T04:37:17.613Z,2.85
2017-09-02T04:39:51.268Z,3.45
2017-09-02T04:42:24.916Z,3.75
2017-09-02T04:44:58.442Z,3.80
2017-09-02T04:47:31.932Z,4.22
2017-09-02T04:50:05.437Z,3.90
2017-09-02T04:52:39.063Z,3.30
2017-09-02T04:55:12.700Z,4.15
2017-09-02T04:57:46.243Z,3.40
2017-09-02T05:00:19.839Z,3.80
2017-09-02T05:02:53.443Z,3.95
2017-09-02T05:05:26.984Z,3.50
2017-09-02T05:08:00.635Z,4.30
2017-09-02T05:10:34.172Z,4.53
2017-09-02T05:13:07.724Z,4.37
2017-09-02T05:15:41.303Z,3.80
2017-09-02T05:18:14.824Z,4.70
2017-09-02T05:20:48.424Z,4.37
2017-09-02T05:23:22.024Z,3.60
2017-09-02T05:25:55.597Z,4.72
2017-09-02T05:28:29.152Z,5.05
2017-09-02T05:31:02.928Z,3.17
2017-09-02T05:33:36.531Z,3.97
2017-09-02T05:36:10.021Z,3.97
2017-09-02T05:38:43.556Z,3.33
2017-09-02T05:41:17.075Z,4.00
2017-09-02T05:43:50.629Z,3.30
2017-09-02T05:46:24.179Z,3.65
2017-09-02T05:48:57.829Z,3.58
2017-09-02T05:51:31.399Z,3.95
2017-09-02T05:54:04.944Z,3.53
2017-09-02T05:56:38.554Z,4.93
2017-09-02T05:59:12.064Z,4.05
2017-09-02T06:01:45.645Z,3.45
2017-09-02T06:04:19.219Z,3.55
2017-09-02T06:06:52.795Z,3.90
2017-09-02T06:09:26.344Z,4.05
2017-09-02T06:11:59.917Z,4.30
2017-09-02T06:14:33.488Z,4.50
2017-09-02T06:17:06.996Z,3.75
2017-09-02T06:19:40.569Z,4.18
2017-09-02T06:22:14.114Z,4.62
2017-09-02T06:24:47.648Z,4.53
2017-09-02T06:27:21.304Z,4.07
2017-09-02T06:29:54.912Z,4.80
2017-09-02T06:32:28.607Z,4.57
2017-09-02T06:35:02.322Z,3.60
2017-09-02T06:37:35.857Z,3.90
2017-09-02T06:40:09.434Z,3.75
2017-09-02T06:42:43.209Z,4.22
2017-09-02T06:45:16.749Z,3.72
2017-09-02T06:47:50.309Z,3.95
2017-09-02T06:50:23.933Z,3.28
2017-09-02T06:52:57.523Z,3.80
2017-09-02T06:55:31.119Z,3.90
2017-09-02T06:58:04.734Z,3.80
2017-09-02T07:00:38.485Z,3.12
2017-09-02T07:03:12.029Z,3.42
2017-09-02T07:05:45.604Z,3.05
2017-09-02T07:08:19.204Z,2.60
2017-09-02T07:10:52.817Z,2.67
2017-09-02T07:13:26.390Z,3.47
2017-09-02T07:16:00.027Z,3.12
2017-09-02T07:18:33.520Z,3.45
2017-09-02T07:21:07.209Z,2.40
2017-09-02T07:23:40.800Z,3.17
2017-09-02T07:26:14.412Z,2.53
2017-09-02T07:28:48.016Z,2.33
2017-09-02T07:31:21.619Z,2.72
2017-09-02T07:33:55.221Z,2.42
2017-09-02T07:36:28.737Z,2.45
2017-09-02T07:39:02.321Z,2.83
2017-09-02T07:41:36.049Z,2.35
2017-09-02T07:44:09.720Z,2.30
2017-09-02T07:46:43.321Z,2.70
2017-09-02T07:49:16.895Z,2.62
2017-09-02T07:51:50.467Z,3.05
2017-09-02T07:54:23.999Z,2.30
2017-09-02T07:56:57.616Z,2.45
2017-09-02T07:59:31.214Z,2.30
2017-09-02T08:02:04.799Z,2.10
2017-09-02T08:04:38.333Z,1.87
2017-09-02T08:07:11.941Z,2.45
2017-09-02T08:09:45.522Z,2.45
2017-09-02T08:12:19.068Z,1.90
2017-09-02T08:14:52.615Z,2.53
2017-09-02T08:17:26.869Z,2.37
2017-09-02T08:20:00.420Z,2.50
2017-09-02T08:22:34.744Z,2.65
2017-09-02T08:25:08.416Z,2.33
2017-09-02T08:27:41.991Z,2.65
2017-09-02T08:30:15.468Z,2.62
2017-09-02T08:32:49.067Z,3.05
2017-09-02T08:35:22.778Z,2.35
2017-09-02T08:37:56.352Z,2.47
2017-09-02T08:40:30.179Z,2.00
2017-09-02T08:43:04.511Z,2.45
2017-09-02T08:45:38.064Z,2.20
2017-09-02T08:48:11.791Z,2.75
2017-09-02T08:50:45.351Z,2.10
2017-09-02T08:53:18.974Z,2.30
2017-09-02T08:55:52.584Z,2.37
2017-09-02T08:58:26.177Z,2.97
2017-09-02T09:00:59.755Z,2.30
2017-09-02T09:03:33.390Z,2.70
2017-09-02T09:06:06.924Z,2.40
2017-09-02T09:08:40.612Z,2.53
2017-09-02T09:11:14.267Z,2.20
2017-09-02T09:13:47.827Z,2.30
2017-09-02T09:16:21.394Z,2.30
2017-09-02T09:18:54.995Z,2.20
2017-09-02T09:21:28.535Z,2.67
2017-09-02T09:24:02.049Z,2.30
2017-09-02T09:26:35.670Z,2.30
2017-09-02T09:29:09.229Z,2.53
2017-09-02T09:31:42.752Z,2.70
2017-09-02T09:34:16.472Z,2.03
2017-09-02T09:36:50.105Z,1.85
2017-09-02T09:39:23.673Z,2.55
2017-09-02T09:41:57.249Z,2.00
2017-09-02T09:44:30.874Z,2.30
2017-09-02T09:47:04.613Z,2.10
2017-09-02T09:49:39.097Z,1.95
2017-09-02T09:52:12.820Z,2.37
2017-09-02T09:54:47.141Z,2.10
2017-09-02T09:57:20.662Z,2.33
2017-09-02T09:59:54.243Z,2.10
2017-09-02T10:02:27.981Z,2.55
2017-09-02T10:05:01.690Z,1.60
2017-09-02T10:07:35.462Z,1.55
2017-09-02T10:10:09.049Z,4.05
2017-09-02T10:12:43.029Z,2.30
2017-09-02T10:15:16.689Z,2.90
2017-09-02T10:17:50.258Z,2.97
2017-09-02T10:20:23.785Z,2.90
2017-09-02T10:22:57.533Z,2.50
2017-09-02T10:25:31.339Z,2.55
2017-09-02T10:28:05.169Z,29.35
2017-09-02T10:30:39.120Z,4.80
2017-09-02T10:33:12.756Z,2.05
2017-09-02T10:35:46.575Z,3.00
2017-09-02T10:38:20.186Z,3.12
2017-09-02T10:40:54.025Z,1.85
2017-09-02T10:43:27.604Z,2.15
2017-09-02T10:46:01.176Z,1.55
2017-09-02T10:48:34.765Z,1.80
2017-09-02T10:51:08.293Z,1.20
2017-09-02T10:53:42.765Z,1.70
2017-09-02T10:56:16.504Z,1.50
2017-09-02T10:58:50.079Z,1.33
2017-09-02T11:01:23.652Z,1.37
2017-09-02T11:03:57.482Z,1.37
2017-09-02T11:06:31.247Z,1.10
2017-09-02T11:09:04.948Z,1.10
2017-09-02T11:11:38.493Z,1.73
2017-09-02T11:14:12.148Z,1.23
2017-09-02T11:16:45.820Z,1.75
2017-09-02T11:19:19.398Z,3.80
2017-09-02T11:21:53.037Z,1.58
2017-09-02T11:24:26.748Z,1.42
2017-09-02T11:27:00.307Z,1.70
2017-09-02T11:29:33.829Z,1.40
2017-09-02T11:32:07.450Z,1.25
2017-09-02T11:34:41.118Z,0.98
2017-09-02T11:37:14.663Z,1.70
2017-09-02T11:39:48.373Z,1.37
2017-09-02T11:42:22.047Z,1.45
2017-09-02T11:44:55.604Z,1.17
2017-09-02T11:47:29.280Z,2.70
2017-09-02T11:50:02.850Z,1.17
2017-09-02T11:52:36.555Z,1.25
2017-09-02T11:55:10.217Z,1.30
2017-09-02T11:57:43.826Z,1.30
2017-09-02T12:00:17.407Z,1.25
2017-09-02T12:02:51.032Z,1.42
2017-09-02T12:05:24.674Z,1.45
2017-09-02T12:07:58.228Z,1.30
2017-09-02T12:10:31.797Z,1.40
2017-09-02T12:13:05.509Z,1.42
2017-09-02T12:15:39.012Z,1.30
2017-09-02T12:18:12.634Z,1.30
2017-09-02T12:20:46.242Z,1.35
2017-09-02T12:23:19.957Z,1.40
2017-09-02T12:25:53.609Z,1.35
2017-09-02T12:28:27.236Z,0.85
2017-09-02T12:31:00.905Z,1.30
2017-09-02T12:33:34.444Z,1.60
2017-09-02T12:36:07.962Z,1.00
2017-09-02T12:38:41.557Z,1.25
2017-09-02T12:41:15.215Z,1.40
2017-09-02T12:43:48.932Z,2.08
2017-09-02T12:46:22.526Z,1.00
2017-09-02T12:48:56.181Z,1.00
2017-09-02T12:51:29.735Z,0.90
2017-09-02T12:54:03.426Z,0.95
2017-09-02T12:56:37.368Z,1.50
2017-09-02T12:59:10.991Z,1.00
2017-09-02T13:01:44.561Z,1.40
2017-09-02T13:04:18.512Z,1.40
2017-09-02T13:06:52.316Z,1.42
2017-09-02T13:09:25.965Z,1.10
2017-09-02T13:11:59.475Z,1.17
2017-09-02T13:14:32.995Z,1.10
2017-09-02T13:17:06.694Z,1.35
2017-09-02T13:19:40.252Z,1.30
2017-09-02T13:22:13.781Z,1.30
2017-09-02T13:24:48.266Z,1.50
2017-09-02T13:27:21.863Z,1.20
2017-09-02T13:29:55.387Z,1.20
2017-09-02T13:32:28.914Z,1.30
2017-09-02T13:35:02.583Z,1.25
2017-09-02T13:37:36.121Z,1.55
2017-09-02T13:40:09.671Z,1.10
2017-09-02T13:42:43.348Z,1.20
2017-09-02T13:45:16.969Z,1.40
2017-09-02T13:47:50.668Z,1.58
2017-09-02T13:50:24.193Z,1.10
2017-09-02T13:52:57.691Z,1.10
2017-09-02T13:55:31.268Z,2.22
2017-09-02T13:58:04.869Z,1.37
2017-09-02T14:00:38.542Z,1.10
2017-09-02T14:03:12.064Z,1.55
2017-09-02T14:05:45.683Z,1.98
2017-09-02T14:08:19.234Z,1.40
2017-09-02T14:10:52.946Z,1.67
2017-09-02T14:13:26.717Z,2.00
2017-09-02T14:16:00.256Z,1.30
2017-09-02T14:18:33.822Z,1.27
2017-09-02T14:21:07.409Z,1.25
2017-09-02T14:23:40.966Z,2.10
2017-09-02T14:26:14.507Z,1.42
2017-09-02T14:28:48.107Z,1.10
2017-09-02T14:31:21.811Z,1.12
2017-09-02T14:33:55.338Z,1.10
2017-09-02T14:36:29.075Z,1.33
2017-09-02T14:39:02.696Z,1.77
2017-09-02T14:41:36.255Z,1.60
2017-09-02T14:44:09.957Z,2.05
2017-09-02T14:46:43.564Z,1.55
2017-09-02T14:49:17.272Z,1.45
2017-09-02T14:51:50.891Z,1.30
2017-09-02T14:54:24.413Z,1.60
2017-09-02T14:56:58.005Z,1.33
2017-09-02T14:59:31.572Z,1.30
2017-09-02T15:02:05.269Z,1.60
2017-09-02T15:04:38.895Z,1.40
2017-09-02T15:07:12.536Z,1.70
2017-09-02T15:09:46.119Z,1.27
2017-09-02T15:12:19.722Z,1.70
2017-09-02T15:14:53.259Z,1.52
2017-09-02T15:17:26.824Z,1.27
2017-09-02T15:20:00.400Z,1.73
2017-09-02T15:22:33.936Z,1.30
2017-09-02T15:25:07.602Z,1.58
2017-09-02T15:27:41.188Z,1.45
2017-09-02T15:30:14.962Z,1.50
2017-09-02T15:32:48.939Z,2.22
2017-09-02T15:35:22.631Z,1.67
2017-09-02T15:37:56.343Z,1.92
2017-09-02T15:40:29.879Z,2.03
2017-09-02T15:43:03.534Z,1.67
2017-09-02T15:45:37.249Z,2.15
2017-09-02T15:48:10.937Z,1.50
2017-09-02T15:50:44.466Z,2.35
2017-09-02T15:53:18.070Z,2.17
2017-09-02T15:55:51.688Z,2.15
2017-09-02T15:58:25.201Z,2.30
2017-09-02T16:00:58.713Z,3.17
2017-09-02T16:03:32.443Z,3.00
2017-09-02T16:06:06.224Z,2.20
2017-09-02T16:08:39.762Z,2.78
2017-09-02T16:11:13.366Z,3.40
2017-09-02T16:13:46.973Z,3.30
2017-09-02T16:16:20.597Z,3.35
2017-09-02T16:18:54.312Z,4.53
2017-09-02T16:21:27.906Z,3.00
2017-09-02T16:24:01.511Z,2.97
2017-09-02T16:26:35.108Z,3.25
2017-09-02T16:29:08.722Z,3.10
2017-09-02T16:31:42.432Z,3.05
2017-09-02T16:34:16.081Z,3.40
2017-09-02T16:36:49.711Z,2.50
2017-09-02T16:39:23.307Z,2.70
2017-09-02T16:41:56.940Z,3.00
2017-09-02T16:44:30.608Z,3.17
2017-09-02T16:47:04.130Z,2.45
2017-09-02T16:49:37.804Z,3.40
2017-09-02T16:52:11.355Z,3.62
2017-09-02T16:54:45.050Z,2.62
2017-09-02T16:57:18.640Z,3.62
2017-09-02T16:59:52.190Z,3.28
2017-09-02T17:02:25.858Z,2.87
2017-09-02T17:04:59.546Z,3.22
2017-09-02T17:07:33.419Z,3.95
2017-09-02T17:10:07.142Z,3.95
2017-09-02T17:12:40.826Z,3.35
2017-09-02T17:15:14.407Z,2.58
2017-09-02T17:17:48.079Z,3.22
2017-09-02T17:20:21.911Z,5.10
2017-09-02T17:22:55.729Z,3.60
2017-09-02T17:25:30.591Z,2.90
2017-09-02T17:28:04.477Z,3.10
2017-09-02T17:30:38.270Z,2.97
2017-09-02T17:33:11.935Z,2.10
2017-09-02T17:35:45.618Z,2.90
2017-09-02T17:38:19.333Z,2.95
2017-09-02T17:40:52.894Z,3.10
2017-09-02T17:43:26.620Z,2.80
2017-09-02T17:46:00.195Z,3.50
2017-09-02T17:48:33.777Z,3.60
2017-09-02T17:51:07.316Z,4.35
2017-09-02T17:53:40.871Z,3.92
2017-09-02T17:56:14.687Z,3.70
2017-09-02T17:58:48.274Z,3.45
2017-09-02T18:01:21.949Z,3.80
2017-09-02T18:03:55.690Z,5.00
2017-09-02T18:06:29.440Z,3.75
2017-09-02T18:09:02.977Z,4.00
2017-09-02T18:11:36.567Z,3.60
2017-09-02T18:14:10.344Z,3.30
2017-09-02T18:16:43.925Z,4.37
2017-09-02T18:19:17.695Z,4.12
2017-09-02T18:21:51.321Z,5.28
2017-09-02T18:24:24.831Z,4.10
2017-09-02T18:26:58.423Z,4.28
2017-09-02T18:29:32.001Z,4.30
2017-09-02T18:32:05.520Z,4.82
2017-09-02T18:34:39.207Z,4.70
2017-09-02T18:37:12.760Z,4.40
2017-09-02T18:39:46.389Z,4.78
2017-09-02T18:42:19.977Z,4.65
2017-09-02T18:44:53.598Z,5.15
2017-09-02T18:47:27.124Z,5.07
2017-09-02T18:50:00.636Z,4.07
2017-09-02T18:52:34.333Z,5.18
2017-09-02T18:55:08.021Z,4.05
2017-09-02T18:57:41.571Z,3.97
2017-09-02T19:00:15.405Z,3.67
2017-09-02T19:02:49.085Z,4.30
2017-09-02T19:05:22.716Z,5.00
2017-09-02T19:07:56.448Z,4.30
2017-09-02T19:10:30.016Z,4.12
2017-09-02T19:13:03.638Z,4.28
2017-09-02T19:15:37.172Z,4.43
2017-09-02T19:18:10.737Z,4.93
2017-09-02T19:20:44.322Z,4.90
2017-09-02T19:23:17.904Z,4.53
2017-09-02T19:25:51.500Z,4.87
2017-09-02T19:28:25.187Z,5.10
2017-09-02T19:30:58.792Z,5.68
2017-09-02T19:33:32.369Z,7.00
2017-09-02T19:36:05.940Z,6.10
2017-09-02T19:38:39.520Z,5.68
2017-09-02T19:41:13.096Z,5.65
2017-09-02T19:43:46.660Z,4.32
2017-09-02T19:46:20.219Z,5.53
2017-09-02T19:48:53.772Z,4.20
2017-09-02T19:51:27.370Z,5.28
2017-09-02T19:54:01.001Z,4.15
2017-09-02T19:56:34.696Z,4.35
2017-09-02T19:59:08.512Z,4.03
2017-09-02T20:01:42.152Z,4.20
2017-09-02T20:04:15.733Z,4.40
2017-09-02T20:06:49.276Z,5.05
2017-09-02T20:09:23.035Z,5.28
2017-09-02T20:11:56.626Z,6.25
2017-09-02T20:14:30.232Z,5.30
2017-09-02T20:17:03.832Z,5.32
2017-09-02T20:19:37.569Z,5.12
2017-09-02T20:22:11.149Z,5.50
2017-09-02T20:24:44.799Z,5.05
2017-09-02T20:27:18.351Z,4.72
2017-09-02T20:29:52.036Z,4.40
2017-09-02T20:32:25.647Z,4.25
2017-09-02T20:34:59.255Z,4.10
2017-09-02T20:37:32.861Z,5.47
2017-09-02T20:40:06.458Z,4.90
2017-09-02T20:42:40.028Z,5.47
2017-09-02T20:45:13.572Z,4.32
2017-09-02T20:47:47.105Z,4.18
2017-09-02T20:50:20.765Z,4.43
2017-09-02T20:52:54.320Z,4.80
2017-09-02T20:55:27.860Z,4.00
2017-09-02T20:58:01.435Z,3.97
2017-09-02T21:00:35.024Z,3.78
2017-09-02T21:03:08.642Z,3.85
2017-09-02T21:05:42.236Z,3.45
2017-09-02T21:08:15.834Z,4.50
2017-09-02T21:10:49.377Z,5.35
2017-09-02T21:13:22.925Z,4.87
2017-09-02T21:15:56.538Z,5.05
2017-09-02T21:18:30.133Z,4.87
2017-09-02T21:21:03.739Z,4.70
2017-09-02T21:23:37.292Z,4.90
2017-09-02T21:26:10.905Z,5.55
2017-09-02T21:28:44.638Z,5.30
2017-09-02T21:31:18.236Z,4.60
2017-09-02T21:33:52.455Z,4.60
2017-09-02T21:36:26.067Z,5.78
2017-09-02T21:38:59.621Z,5.68
2017-09-02T21:41:33.409Z,6.32
2017-09-02T21:44:06.943Z,6.07
2017-09-02T21:46:40.525Z,5.10
2017-09-02T21:49:14.091Z,5.32
2017-09-02T21:51:47.762Z,4.90
2017-09-02T21:54:21.272Z,5.57
2017-09-02T21:56:54.896Z,6.05
2017-09-02T21:59:28.432Z,5.35
2017-09-02T22:02:02.163Z,5.53
2017-09-02T22:04:35.693Z,5.57
2017-09-02T22:07:09.258Z,5.82
2017-09-02T22:09:42.778Z,5.35
2017-09-02T22:12:16.370Z,5.60
2017-09-02T22:14:49.934Z,5.40
2017-09-02T22:17:23.653Z,5.80
2017-09-02T22:19:57.376Z,4.65
2017-09-02T22:22:30.886Z,5.47
2017-09-02T22:25:04.597Z,5.72
2017-09-02T22:27:38.173Z,5.50
2017-09-02T22:30:11.916Z,6.35
2017-09-02T22:32:45.731Z,5.65
2017-09-02T22:35:19.287Z,7.00
2017-09-02T22:37:52.824Z,6.75
2017-09-02T22:40:26.394Z,6.22
2017-09-02T22:42:59.932Z,6.30
2017-09-02T22:45:33.591Z,6.85
2017-09-02T22:48:07.188Z,7.25
2017-09-02T22:50:40.697Z,6.68
2017-09-02T22:53:14.213Z,7.07
2017-09-02T22:55:47.860Z,6.40
2017-09-02T22:58:21.468Z,6.18
2017-09-02T23:00:55.014Z,7.15
2017-09-02T23:03:28.543Z,6.20
2017-09-02T23:06:02.152Z,7.18
2017-09-02T23:08:35.744Z,7.10
2017-09-02T23:11:09.501Z,7.47
2017-09-02T23:13:43.178Z,6.53
2017-09-02T23:16:16.700Z,7.40
2017-09-02T23:18:50.421Z,7.47
2017-09-02T23:21:24.111Z,7.62
2017-09-02T23:23:57.623Z,7.72
2017-09-02T23:26:31.191Z,8.55
2017-09-02T23:29:05.760Z,7.28
2017-09-02T23:31:39.347Z,8.00
2017-09-02T23:34:12.992Z,7.05
2017-09-02T23:36:46.549Z,8.15
2017-09-02T23:39:20.102Z,7.53
2017-09-02T23:41:53.661Z,7.30
2017-09-02T23:44:27.247Z,8.63
2017-09-02T23:47:00.896Z,7.60
2017-09-02T23:49:34.501Z,5.93
2017-09-02T23:52:08.156Z,8.23
2017-09-02T23:54:41.706Z,7.85
2017-09-02T23:57:15.259Z,9.02
2017-09-02T23:59:48.887Z,7.53
